Hydro, Oklahoma
Current Conditions -  °F | °C
As of 7:15 PM on Saturday 20 Dec 2014 (Local Time) from KOJA Reporting Station
Overcast Overcast  
Wind Chill: 35°   Ceiling: 2200
Heat Index: 41°   Visibility: 10mi
Dew Point: 37°   Wind: 9mph
Humidity: 87%   Direction: 160°SSE
Pressure: 30.11"   Gusts: NA
Location:  35.55°N, 98.58°W
Report Text: KOJA 210115Z AUTO 16008KT 10SM SCT005 OVC022 05/03 A3011 RMK AO2
Loading
Personal Weather Stations






























Interactive Weather Map New forecast layout! Learn more

10-Day Weather Forecast

Advertisements
Track Severe Weather on mobile